createdAt,value
2023-01-17T00:00:52.320Z,81.25
2023-01-17T00:01:52.198Z,81.55
2023-01-17T00:02:52.372Z,81.58
2023-01-17T00:03:52.195Z,81.54
2023-01-17T00:04:52.143Z,81.70
2023-01-17T00:05:52.039Z,81.56
2023-01-17T00:06:52.216Z,81.60
2023-01-17T00:07:52.013Z,81.50
2023-01-17T00:08:52.098Z,81.55
2023-01-17T00:09:51.987Z,81.54
2023-01-17T00:10:53.159Z,81.77
2023-01-17T00:11:51.957Z,81.65
2023-01-17T00:12:52.033Z,81.54
2023-01-17T00:13:51.943Z,81.38
2023-01-17T00:14:52.005Z,81.40
2023-01-17T00:15:51.926Z,81.70
2023-01-17T00:18:03.777Z,81.75
2023-01-17T00:19:02.651Z,81.75
2023-01-17T00:20:02.809Z,81.77
2023-01-17T00:21:02.618Z,81.49
2023-01-17T00:22:02.718Z,81.46
2023-01-17T00:23:02.606Z,81.66
2023-01-17T00:24:02.706Z,81.87
2023-01-17T00:25:02.566Z,82.06
2023-01-17T00:26:02.695Z,82.11
2023-01-17T00:27:02.541Z,82.45
2023-01-17T00:28:02.638Z,82.42
2023-01-17T00:29:02.519Z,82.39
2023-01-17T00:30:02.619Z,82.31
2023-01-17T00:31:02.549Z,82.33
2023-01-17T00:32:02.621Z,82.34
2023-01-17T00:33:02.470Z,82.36
2023-01-17T00:34:04.535Z,82.48
2023-01-17T00:35:02.446Z,82.46
2023-01-17T00:36:02.513Z,82.44
2023-01-17T00:37:02.418Z,82.18
2023-01-17T00:38:03.543Z,81.91
2023-01-17T00:39:02.385Z,81.79
2023-01-17T00:40:02.672Z,81.50
2023-01-17T00:41:02.366Z,81.38
2023-01-17T00:42:02.535Z,81.47
2023-01-17T00:43:02.335Z,81.72
2023-01-17T00:44:02.516Z,81.78
2023-01-17T00:45:02.314Z,82.05
2023-01-17T00:46:02.345Z,82.28
2023-01-17T00:47:02.284Z,82.30
2023-01-17T00:48:02.427Z,82.47
2023-01-17T00:49:02.269Z,82.43
2023-01-17T00:50:04.416Z,82.44
2023-01-17T00:51:02.235Z,82.67
2023-01-17T00:52:02.353Z,82.75
2023-01-17T00:53:02.206Z,82.83
2023-01-17T00:54:02.234Z,82.92
2023-01-17T00:55:02.182Z,83.01
2023-01-17T00:56:02.217Z,83.24
2023-01-17T00:57:02.155Z,83.44
2023-01-17T00:58:02.258Z,83.47
2023-01-17T00:59:02.123Z,83.43
2023-01-17T01:00:02.245Z,83.68
2023-01-17T01:01:02.212Z,83.80
2023-01-17T01:02:04.414Z,83.68
2023-01-17T01:03:02.065Z,83.73
2023-01-17T01:04:02.161Z,83.96
2023-01-17T01:05:02.047Z,83.66
2023-01-17T01:06:02.190Z,83.68
2023-01-17T01:07:02.031Z,83.78
2023-01-17T01:08:02.130Z,83.71
2023-01-17T01:09:02.003Z,83.70
2023-01-17T01:10:02.162Z,83.80
2023-01-17T01:11:01.974Z,83.75
2023-01-17T01:12:02.151Z,83.81
2023-01-17T01:13:01.951Z,83.84
2023-01-17T01:14:02.033Z,83.73
2023-01-17T01:15:01.924Z,83.64
2023-01-17T01:16:02.008Z,83.69
2023-01-17T01:17:01.903Z,83.90
2023-01-17T01:18:03.083Z,84.08
2023-01-17T01:19:01.874Z,84.00
2023-01-17T01:20:02.042Z,83.78
2023-01-17T01:21:01.840Z,83.68
2023-01-17T01:22:01.885Z,83.50
2023-01-17T01:23:01.821Z,83.25
2023-01-17T01:24:01.960Z,83.06
2023-01-17T01:25:01.793Z,83.20
2023-01-17T01:26:01.849Z,83.59
2023-01-17T01:27:01.760Z,83.47
2023-01-17T01:28:02.914Z,83.47
2023-01-17T01:29:01.741Z,83.47
2023-01-17T01:30:02.889Z,83.42
2023-01-17T01:31:01.730Z,83.52
2023-01-17T01:32:01.749Z,83.68
2023-01-17T01:33:01.689Z,83.81
2023-01-17T01:34:01.808Z,83.73
2023-01-17T01:35:01.661Z,83.70
2023-01-17T01:36:01.795Z,83.53
2023-01-17T01:37:01.638Z,83.39
2023-01-17T01:38:01.771Z,83.50
2023-01-17T01:39:01.618Z,83.64
2023-01-17T01:40:01.798Z,83.72
2023-01-17T01:41:01.587Z,83.70
2023-01-17T01:42:03.728Z,83.82
2023-01-17T01:43:01.560Z,83.83
2023-01-17T01:44:01.667Z,83.82
2023-01-17T01:45:01.539Z,83.99
2023-01-17T01:46:01.741Z,84.06
2023-01-17T01:47:01.541Z,84.21
2023-01-17T01:48:01.687Z,84.26
2023-01-17T01:49:01.488Z,84.20
2023-01-17T01:50:01.622Z,84.32
2023-01-17T01:51:01.461Z,84.38
2023-01-17T01:52:01.523Z,84.47
2023-01-17T01:53:01.434Z,84.58
2023-01-17T01:54:01.611Z,84.69
2023-01-17T01:55:01.406Z,84.57
2023-01-17T01:56:02.497Z,84.44
2023-01-17T01:57:01.384Z,84.71
2023-01-17T01:58:01.531Z,84.73
2023-01-17T01:59:01.360Z,84.76
2023-01-17T02:00:04.678Z,84.75
2023-01-17T02:01:01.369Z,84.72
2023-01-17T02:02:01.381Z,84.82
2023-01-17T02:03:01.300Z,84.84
2023-01-17T02:04:01.474Z,84.75
2023-01-17T02:05:04.433Z,84.69
2023-01-17T02:06:01.463Z,84.59
2023-01-17T02:07:01.245Z,84.79
2023-01-17T02:08:01.285Z,85.04
2023-01-17T02:09:01.226Z,85.15
2023-01-17T02:10:01.327Z,85.03
2023-01-17T02:11:01.223Z,85.03
2023-01-17T02:12:01.255Z,85.03
2023-01-17T02:13:01.176Z,85.06
2023-01-17T02:14:01.234Z,85.02
2023-01-17T02:15:01.157Z,84.95
2023-01-17T02:16:01.357Z,85.05
2023-01-17T02:17:01.136Z,85.22
2023-01-17T02:18:01.187Z,85.26
2023-01-17T02:19:01.090Z,85.19
2023-01-17T02:20:01.204Z,85.23
2023-01-17T02:21:01.079Z,85.21
2023-01-17T02:22:01.075Z,85.25
2023-01-17T02:23:01.083Z,85.13
2023-01-17T02:24:02.192Z,85.32
2023-01-17T02:25:01.023Z,85.31
2023-01-17T02:26:01.210Z,85.28
2023-01-17T02:27:01.000Z,85.34
2023-01-17T02:28:01.041Z,85.26
2023-01-17T02:29:00.984Z,85.09
2023-01-17T02:30:03.076Z,85.05
2023-01-17T02:31:00.946Z,85.15
2023-01-17T02:32:01.013Z,85.28
2023-01-17T02:33:00.913Z,85.19
2023-01-17T02:34:01.051Z,85.29
2023-01-17T02:35:00.909Z,85.47
2023-01-17T02:36:02.962Z,85.50
2023-01-17T02:37:00.868Z,85.54
2023-01-17T02:38:00.914Z,85.34
2023-01-17T02:39:00.848Z,85.32
2023-01-17T02:40:00.950Z,85.54
2023-01-17T02:41:00.830Z,85.56
2023-01-17T02:42:01.000Z,85.54
2023-01-17T02:43:00.784Z,85.49
2023-01-17T02:44:01.954Z,85.40
2023-01-17T02:45:00.770Z,85.35
2023-01-17T02:46:00.906Z,85.32
2023-01-17T02:47:00.770Z,85.45
2023-01-17T02:48:01.833Z,85.45
2023-01-17T02:49:00.704Z,85.53
2023-01-17T02:50:00.829Z,85.65
2023-01-17T02:51:00.681Z,85.66
2023-01-17T02:52:00.863Z,85.87
2023-01-17T02:53:00.672Z,85.82
2023-01-17T02:54:01.826Z,85.85
2023-01-17T02:55:00.630Z,85.96
2023-01-17T02:56:00.731Z,85.94
2023-01-17T02:57:00.599Z,86.00
2023-01-17T02:58:00.675Z,86.09
2023-01-17T02:59:00.598Z,85.78
2023-01-17T03:00:01.739Z,85.84
2023-01-17T03:01:00.643Z,85.85
2023-01-17T03:02:00.923Z,85.49
2023-01-17T03:03:00.530Z,85.33
2023-01-17T03:04:00.597Z,85.31
2023-01-17T03:05:00.528Z,85.41
2023-01-17T03:06:02.608Z,85.43
2023-01-17T03:07:00.484Z,85.36
2023-01-17T03:08:00.547Z,85.45
2023-01-17T03:09:00.447Z,85.55
2023-01-17T03:10:00.586Z,85.55
2023-01-17T03:11:00.431Z,85.45
2023-01-17T03:12:00.620Z,85.34
2023-01-17T03:13:00.397Z,85.33
2023-01-17T03:14:00.483Z,85.44
2023-01-17T03:15:00.375Z,85.64
2023-01-17T03:16:00.493Z,85.77
2023-01-17T03:17:00.396Z,85.94
2023-01-17T03:18:00.437Z,86.04
2023-01-17T03:19:00.317Z,86.14
2023-01-17T03:20:00.475Z,85.93
2023-01-17T03:21:00.295Z,86.00
2023-01-17T03:22:00.396Z,86.08
2023-01-17T03:23:00.296Z,86.21
2023-01-17T03:24:21.306Z,86.12
2023-01-17T03:25:00.248Z,86.10
2023-01-17T03:26:00.370Z,85.99
2023-01-17T03:27:00.217Z,86.04
2023-01-17T03:28:00.296Z,86.23
2023-01-17T03:29:00.214Z,86.34
2023-01-17T03:30:01.375Z,86.28
2023-01-17T03:31:00.283Z,86.44
2023-01-17T03:32:00.265Z,86.34
2023-01-17T03:33:00.134Z,86.39
2023-01-17T03:34:00.203Z,86.32
2023-01-17T03:35:00.213Z,86.35
2023-01-17T03:36:00.183Z,86.39
2023-01-17T03:37:00.106Z,86.35
2023-01-17T03:38:00.184Z,86.29
2023-01-17T03:39:00.103Z,86.29
2023-01-17T03:40:00.211Z,86.18
2023-01-17T03:41:00.057Z,86.29
2023-01-17T03:42:00.164Z,86.09
2023-01-17T03:43:00.003Z,85.90
2023-01-17T03:44:00.045Z,85.89
2023-01-17T03:44:59.973Z,85.87
2023-01-17T03:46:00.199Z,85.86
2023-01-17T03:46:59.974Z,85.62
2023-01-17T03:48:21.140Z,85.46
2023-01-17T03:48:59.934Z,85.26
2023-01-17T03:49:59.990Z,85.52
2023-01-17T03:50:59.904Z,85.40
2023-01-17T03:52:00.019Z,85.37
2023-01-17T03:52:59.897Z,85.28
2023-01-17T03:54:02.060Z,85.32
2023-01-17T03:54:59.853Z,85.36
2023-01-17T03:55:59.996Z,85.25
2023-01-17T03:56:59.825Z,85.00
2023-01-17T03:58:00.971Z,84.97
2023-01-17T03:59:00.120Z,84.99
2023-01-17T03:59:59.866Z,85.05
2023-01-17T04:00:59.845Z,84.98
2023-01-17T04:01:59.992Z,84.96
2023-01-17T04:02:59.751Z,85.05
2023-01-17T04:03:59.828Z,85.17
2023-01-17T04:04:59.743Z,85.21
2023-01-17T04:06:22.940Z,85.39
2023-01-17T04:06:59.690Z,85.57
2023-01-17T04:07:59.900Z,85.58
2023-01-17T04:08:59.670Z,85.49
2023-01-17T04:09:59.742Z,85.40
2023-01-17T04:10:59.673Z,85.49
2023-01-17T04:12:20.770Z,85.63
2023-01-17T04:12:59.621Z,85.67
2023-01-17T04:13:59.710Z,85.65
2023-01-17T04:14:59.589Z,85.67
2023-01-17T04:15:59.740Z,85.63
2023-01-17T04:16:59.585Z,85.72
2023-01-17T04:18:00.605Z,85.66
2023-01-17T04:18:59.541Z,85.58
2023-01-17T04:19:59.608Z,85.58
2023-01-17T04:20:59.515Z,85.42
2023-01-17T04:21:59.649Z,85.44
2023-01-17T04:22:59.518Z,85.49
2023-01-17T04:23:59.580Z,85.40
2023-01-17T04:24:59.470Z,85.46
2023-01-17T04:26:01.661Z,85.38
2023-01-17T04:26:59.434Z,85.29
2023-01-17T04:27:59.568Z,85.20
2023-01-17T04:28:59.435Z,85.24
2023-01-17T04:29:59.489Z,85.20
2023-01-17T04:30:59.445Z,85.16
2023-01-17T04:32:01.543Z,85.25
2023-01-17T04:32:59.359Z,85.29
2023-01-17T04:33:59.458Z,85.32
2023-01-17T04:34:59.380Z,85.45
2023-01-17T04:35:59.404Z,85.37
2023-01-17T04:36:59.307Z,85.23
2023-01-17T04:38:00.360Z,85.21
2023-01-17T04:38:59.288Z,85.30
2023-01-17T04:39:59.389Z,85.35
2023-01-17T04:40:59.275Z,85.30
2023-01-17T04:41:59.395Z,85.45
2023-01-17T04:42:59.225Z,85.62
2023-01-17T04:43:59.344Z,85.69
2023-01-17T04:44:59.215Z,85.83
2023-01-17T04:45:59.406Z,85.92
2023-01-17T04:46:59.207Z,85.95
2023-01-17T04:47:59.305Z,86.02
2023-01-17T04:48:59.166Z,86.03
2023-01-17T04:49:59.243Z,86.05
2023-01-17T04:50:59.124Z,86.09
2023-01-17T04:51:59.282Z,86.14
2023-01-17T04:52:59.125Z,86.23
2023-01-17T04:53:59.207Z,86.33
2023-01-17T04:54:59.071Z,86.34
2023-01-17T04:55:59.153Z,86.34
2023-01-17T04:56:59.050Z,86.31
2023-01-17T04:57:59.186Z,86.31
2023-01-17T04:58:59.051Z,86.31
2023-01-17T04:59:59.113Z,86.38
2023-01-17T05:00:59.244Z,86.53
2023-01-17T05:01:59.168Z,86.63
2023-01-17T05:02:58.983Z,86.66
2023-01-17T05:03:58.985Z,86.61
2023-01-17T05:04:58.960Z,86.48
2023-01-17T05:06:01.116Z,86.27
2023-01-17T05:06:58.912Z,86.24
2023-01-17T05:07:59.054Z,86.29
2023-01-17T05:08:58.892Z,86.40
2023-01-17T05:09:58.991Z,86.47
2023-01-17T05:10:58.897Z,86.59
2023-01-17T05:12:00.061Z,86.66
2023-01-17T05:12:58.841Z,86.61
2023-01-17T05:13:58.859Z,86.71
2023-01-17T05:14:58.828Z,86.63
2023-01-17T05:15:58.909Z,86.46
2023-01-17T05:16:58.814Z,86.42
2023-01-17T05:17:58.932Z,86.39
2023-01-17T05:18:58.779Z,86.44
2023-01-17T05:19:58.868Z,86.62
2023-01-17T05:20:58.735Z,86.73
2023-01-17T05:21:58.791Z,86.77
2023-01-17T05:22:58.731Z,86.65
2023-01-17T05:25:08.222Z,86.34
2023-01-17T05:26:08.021Z,86.35
2023-01-17T05:27:08.157Z,86.58
2023-01-17T05:28:08.015Z,86.67
2023-01-17T05:29:31.061Z,86.50
2023-01-17T05:30:07.962Z,86.44
2023-01-17T05:31:08.086Z,86.49
2023-01-17T05:32:07.950Z,86.65
2023-01-17T05:33:08.059Z,86.66
2023-01-17T05:34:07.922Z,86.38
2023-01-17T05:35:29.073Z,85.95
2023-01-17T05:36:07.884Z,85.68
2023-01-17T05:37:07.931Z,85.71
2023-01-17T05:38:07.853Z,85.90
2023-01-17T05:39:08.047Z,86.14
2023-01-17T05:40:07.841Z,86.31
2023-01-17T05:42:17.180Z,85.76
2023-01-17T05:43:17.087Z,85.76
2023-01-17T05:44:18.138Z,86.20
2023-01-17T05:45:17.084Z,86.14
2023-01-17T05:46:38.314Z,85.97
2023-01-17T05:47:17.030Z,85.87
2023-01-17T05:48:17.184Z,85.73
2023-01-17T05:49:16.996Z,85.95
2023-01-17T05:50:17.121Z,86.41
2023-01-17T05:51:16.987Z,86.73
2023-01-17T05:52:17.057Z,86.90
2023-01-17T05:53:16.960Z,86.90
2023-01-17T05:54:16.996Z,86.80
2023-01-17T05:55:16.919Z,86.92
2023-01-17T05:56:17.033Z,86.94
2023-01-17T05:57:16.976Z,86.82
2023-01-17T05:58:17.984Z,86.61
2023-01-17T05:59:20.504Z,86.64
2023-01-17T06:00:17.851Z,86.81
2023-01-17T06:01:17.046Z,86.90
2023-01-17T06:02:16.836Z,87.00
2023-01-17T06:03:17.987Z,86.94
2023-01-17T06:04:16.886Z,86.75
2023-01-17T06:05:16.970Z,86.45
2023-01-17T06:06:16.765Z,86.25
2023-01-17T06:07:16.875Z,86.29
2023-01-17T06:08:16.764Z,86.35
2023-01-17T06:09:16.856Z,86.54
2023-01-17T06:10:16.725Z,86.67
2023-01-17T06:11:16.835Z,86.74
2023-01-17T06:12:16.685Z,86.70
2023-01-17T06:13:16.775Z,86.59
2023-01-17T06:14:16.671Z,86.52
2023-01-17T06:15:16.747Z,86.56
2023-01-17T06:16:16.686Z,86.39
2023-01-17T06:17:16.704Z,86.38
2023-01-17T06:18:16.660Z,86.64
2023-01-17T06:19:17.053Z,86.91
2023-01-17T06:20:16.584Z,86.95
2023-01-17T06:21:17.795Z,86.91
2023-01-17T06:22:16.553Z,86.81
2023-01-17T06:23:16.758Z,86.75
2023-01-17T06:24:16.532Z,86.58
2023-01-17T06:25:16.586Z,86.57
2023-01-17T06:26:16.508Z,86.70
2023-01-17T06:27:21.350Z,86.84
2023-01-17T06:28:16.473Z,86.82
2023-01-17T06:29:16.553Z,86.55
2023-01-17T06:30:16.452Z,86.43
2023-01-17T06:31:16.639Z,86.46
2023-01-17T06:32:16.430Z,86.61
2023-01-17T06:33:16.498Z,86.59
2023-01-17T06:34:16.405Z,86.60
2023-01-17T06:35:16.463Z,86.46
2023-01-17T06:36:16.371Z,86.57
2023-01-17T06:37:16.511Z,86.64
2023-01-17T06:38:16.353Z,86.65
2023-01-17T06:39:17.520Z,86.66
2023-01-17T06:40:16.348Z,86.64
2023-01-17T06:41:16.472Z,86.69
2023-01-17T06:42:16.325Z,86.88
2023-01-17T06:43:16.449Z,87.11
2023-01-17T06:44:16.260Z,87.26
2023-01-17T06:45:16.395Z,87.31
2023-01-17T06:46:16.321Z,87.34
2023-01-17T06:47:16.371Z,87.54
2023-01-17T06:48:16.250Z,87.56
2023-01-17T06:49:16.314Z,87.52
2023-01-17T06:50:16.208Z,87.53
2023-01-17T06:51:16.414Z,87.60
2023-01-17T06:52:16.161Z,87.84
2023-01-17T06:53:16.287Z,87.92
2023-01-17T06:54:16.143Z,88.01
2023-01-17T06:55:16.252Z,87.86
2023-01-17T06:56:16.109Z,87.85
2023-01-17T06:57:16.228Z,87.83
2023-01-17T06:58:16.084Z,87.81
2023-01-17T06:59:16.187Z,87.94
2023-01-17T07:00:16.059Z,87.97
2023-01-17T07:01:16.204Z,88.07
2023-01-17T07:02:16.043Z,88.15
2023-01-17T07:03:16.108Z,88.24
2023-01-17T07:04:16.008Z,88.19
2023-01-17T07:05:16.089Z,87.96
2023-01-17T07:06:15.979Z,87.84
2023-01-17T07:07:16.129Z,87.82
2023-01-17T07:08:16.008Z,87.85
2023-01-17T07:09:16.118Z,87.90
2023-01-17T07:10:15.957Z,87.90
2023-01-17T07:11:16.003Z,87.83
2023-01-17T07:12:15.899Z,87.79
2023-01-17T07:13:15.998Z,87.78
2023-01-17T07:14:15.878Z,87.80
2023-01-17T07:15:16.057Z,87.79
2023-01-17T07:16:15.883Z,87.71
2023-01-17T07:17:16.008Z,87.71
2023-01-17T07:18:15.844Z,87.80
2023-01-17T07:19:15.827Z,87.75
2023-01-17T07:20:15.806Z,87.45
2023-01-17T07:21:15.927Z,87.41
2023-01-17T07:22:15.788Z,87.43
2023-01-17T07:23:15.918Z,87.68
2023-01-17T07:24:15.752Z,87.66
2023-01-17T07:25:15.866Z,87.49
2023-01-17T07:26:15.716Z,87.35
2023-01-17T07:27:15.935Z,87.39
2023-01-17T07:28:15.696Z,87.44
2023-01-17T07:29:17.805Z,87.42
2023-01-17T07:30:15.667Z,87.57
2023-01-17T07:31:15.805Z,87.55
2023-01-17T07:32:15.645Z,87.50
2023-01-17T07:33:15.738Z,87.67
2023-01-17T07:34:15.684Z,87.83
2023-01-17T07:35:15.730Z,87.98
2023-01-17T07:36:15.595Z,88.01
2023-01-17T07:37:15.814Z,88.12
2023-01-17T07:38:15.564Z,88.20
2023-01-17T07:39:15.645Z,88.23
2023-01-17T07:40:15.564Z,88.19
2023-01-17T07:41:15.654Z,88.21
2023-01-17T07:42:15.551Z,88.21
2023-01-17T07:43:17.356Z,88.23
2023-01-17T07:44:15.496Z,88.32
2023-01-17T07:45:16.529Z,88.44
2023-01-17T07:46:15.537Z,88.43
2023-01-17T07:47:15.537Z,88.39
2023-01-17T07:48:15.451Z,88.26
2023-01-17T07:49:15.448Z,88.26
2023-01-17T07:50:15.403Z,88.29
2023-01-17T07:51:15.553Z,88.31
2023-01-17T07:52:17.465Z,88.39
2023-01-17T07:53:15.542Z,88.28
2023-01-17T07:54:15.370Z,88.12
2023-01-17T07:55:15.474Z,88.09
2023-01-17T07:56:15.322Z,88.30
2023-01-17T07:57:15.471Z,88.41
2023-01-17T07:58:15.302Z,88.24
2023-01-17T07:59:17.494Z,87.94
2023-01-17T08:00:15.272Z,88.02
2023-01-17T08:02:29.718Z,87.74
2023-01-17T08:03:25.993Z,87.74
2023-01-17T08:04:26.138Z,88.08
2023-01-17T08:05:25.965Z,88.02
2023-01-17T08:06:26.078Z,88.08
2023-01-17T08:07:25.943Z,88.00
2023-01-17T08:08:26.160Z,88.05
2023-01-17T08:09:25.919Z,88.19
2023-01-17T08:10:25.997Z,88.18
2023-01-17T08:11:25.894Z,88.30
2023-01-17T08:13:35.481Z,88.44
2023-01-17T08:14:35.251Z,88.43
2023-01-17T08:15:35.289Z,88.68
2023-01-17T08:16:36.292Z,88.71
2023-01-17T08:17:57.331Z,88.81
2023-01-17T08:18:35.340Z,88.81
2023-01-17T08:19:35.310Z,88.86
2023-01-17T08:20:35.183Z,88.80
2023-01-17T08:21:35.230Z,88.64
2023-01-17T08:22:35.156Z,88.53
2023-01-17T08:23:35.599Z,88.55
2023-01-17T08:24:35.125Z,88.48
2023-01-17T08:25:35.344Z,88.52
2023-01-17T08:26:35.089Z,88.56
2023-01-17T08:27:36.412Z,88.49
2023-01-17T08:28:35.080Z,88.29
2023-01-17T08:29:35.140Z,88.18
2023-01-17T08:30:35.051Z,87.91
2023-01-17T08:31:35.203Z,87.84
2023-01-17T08:32:35.030Z,87.83
2023-01-17T08:33:35.210Z,87.79
2023-01-17T08:34:35.005Z,87.82
2023-01-17T08:35:36.346Z,87.56
2023-01-17T08:36:35.730Z,87.68
2023-01-17T08:37:35.124Z,87.86
2023-01-17T08:38:34.946Z,87.79
2023-01-17T08:39:35.020Z,87.87
2023-01-17T08:40:34.916Z,87.87
2023-01-17T08:41:35.084Z,87.51
2023-01-17T08:42:34.960Z,87.28
2023-01-17T08:43:34.937Z,87.46
2023-01-17T08:44:34.858Z,87.10
2023-01-17T08:45:34.975Z,86.91
2023-01-17T08:46:34.919Z,87.02
2023-01-17T08:47:34.965Z,87.39
2023-01-17T08:48:34.816Z,87.49
2023-01-17T08:49:34.947Z,87.51
2023-01-17T08:50:34.794Z,87.44
2023-01-17T08:52:43.719Z,87.03
2023-01-17T08:53:43.524Z,87.02
2023-01-17T08:54:43.704Z,87.06
2023-01-17T08:55:43.513Z,87.02
2023-01-17T08:56:44.597Z,87.09
2023-01-17T08:57:43.493Z,87.35
2023-01-17T08:58:43.501Z,87.09
2023-01-17T08:59:43.462Z,86.52
2023-01-17T09:00:43.622Z,85.85
2023-01-17T09:01:43.596Z,86.01
2023-01-17T09:02:43.514Z,86.09
2023-01-17T09:03:43.407Z,86.10
2023-01-17T09:04:43.426Z,86.32
2023-01-17T09:05:43.389Z,86.23
2023-01-17T09:06:43.603Z,86.28
2023-01-17T09:07:43.353Z,86.28
2023-01-17T09:08:45.258Z,86.73
2023-01-17T09:09:43.335Z,86.96
2023-01-17T09:10:43.368Z,87.05
2023-01-17T09:11:43.304Z,87.18
2023-01-17T09:12:43.333Z,87.31
2023-01-17T09:13:43.293Z,87.48
2023-01-17T09:14:43.305Z,87.50
2023-01-17T09:15:43.256Z,87.56
2023-01-17T09:16:43.416Z,87.48
2023-01-17T09:17:43.225Z,87.26
2023-01-17T09:18:44.301Z,87.10
2023-01-17T09:19:43.193Z,87.31
2023-01-17T09:20:43.233Z,87.13
2023-01-17T09:21:43.171Z,86.82
2023-01-17T09:22:45.090Z,87.10
2023-01-17T09:23:43.172Z,87.03
2023-01-17T09:24:43.210Z,86.83
2023-01-17T09:25:43.111Z,86.73
2023-01-17T09:26:43.175Z,87.00
2023-01-17T09:27:43.081Z,86.95
2023-01-17T09:28:43.224Z,86.73
2023-01-17T09:29:43.066Z,86.67
2023-01-17T09:30:43.260Z,86.54
2023-01-17T09:31:43.031Z,86.73
2023-01-17T09:32:43.124Z,86.62
2023-01-17T09:33:43.103Z,86.65
2023-01-17T09:34:43.095Z,86.62
2023-01-17T09:35:42.989Z,86.55
2023-01-17T09:36:43.110Z,86.51
2023-01-17T09:37:42.965Z,86.64
2023-01-17T09:38:43.081Z,86.67
2023-01-17T09:39:42.953Z,86.89
2023-01-17T09:40:42.986Z,86.99
2023-01-17T09:41:42.917Z,87.07
2023-01-17T09:42:42.940Z,87.18
2023-01-17T09:43:42.884Z,87.03
2023-01-17T09:44:42.964Z,86.85
2023-01-17T09:45:42.889Z,85.49
2023-01-17T09:46:42.911Z,84.81
2023-01-17T09:47:42.828Z,84.82
2023-01-17T09:48:43.945Z,84.81
2023-01-17T09:49:42.814Z,82.29
2023-01-17T09:50:42.844Z,84.25
2023-01-17T09:51:42.777Z,82.49
2023-01-17T09:52:42.952Z,81.94
2023-01-17T09:53:42.770Z,79.29
2023-01-17T09:54:42.844Z,79.08
2023-01-17T09:55:42.731Z,81.82
2023-01-17T09:56:42.802Z,82.84
2023-01-17T09:57:42.712Z,83.33
2023-01-17T09:58:42.806Z,83.07
2023-01-17T09:59:45.386Z,80.03
2023-01-17T10:00:42.769Z,81.75
2023-01-17T10:01:42.852Z,83.15
2023-01-17T10:02:42.832Z,84.33
2023-01-17T10:03:42.686Z,81.59
2023-01-17T10:04:44.746Z,78.57
2023-01-17T10:05:42.633Z,79.56
2023-01-17T10:06:42.707Z,82.07
2023-01-17T10:07:42.567Z,82.97
2023-01-17T10:08:42.680Z,82.51
2023-01-17T10:09:42.552Z,81.69
2023-01-17T10:10:42.612Z,79.91
2023-01-17T10:11:42.528Z,76.33
2023-01-17T10:12:42.549Z,76.02
2023-01-17T10:13:42.488Z,76.42
2023-01-17T10:14:42.526Z,76.27
2023-01-17T10:15:42.478Z,75.46
2023-01-17T10:16:42.611Z,76.08
2023-01-17T10:17:42.436Z,73.63
2023-01-17T10:18:42.476Z,74.28
2023-01-17T10:19:42.406Z,76.02
2023-01-17T10:20:42.475Z,72.54
2023-01-17T10:21:42.407Z,73.51
2023-01-17T10:22:42.466Z,74.48
2023-01-17T10:23:42.356Z,74.51
2023-01-17T10:24:42.647Z,72.41
2023-01-17T10:25:42.335Z,73.19
2023-01-17T10:26:42.386Z,73.20
2023-01-17T10:27:42.312Z,73.23
2023-01-17T10:28:42.429Z,71.51
2023-01-17T10:29:42.305Z,71.32
2023-01-17T10:30:42.412Z,70.26
2023-01-17T10:31:42.258Z,71.46
2023-01-17T10:32:42.325Z,72.90
2023-01-17T10:33:42.248Z,69.90
2023-01-17T10:34:42.265Z,71.33
2023-01-17T10:35:42.225Z,71.15
2023-01-17T10:36:42.260Z,70.12
2023-01-17T10:37:42.185Z,70.10
2023-01-17T10:38:42.294Z,70.76
2023-01-17T10:39:42.145Z,69.29
2023-01-17T10:40:42.209Z,68.75
2023-01-17T10:41:42.145Z,69.64
2023-01-17T10:42:42.216Z,68.11
2023-01-17T10:43:42.113Z,69.65
2023-01-17T10:44:42.151Z,69.88
2023-01-17T10:45:42.145Z,68.53
2023-01-17T10:46:42.142Z,68.44
2023-01-17T10:47:42.066Z,69.92
2023-01-17T10:48:42.154Z,70.21
2023-01-17T10:49:42.041Z,70.66
2023-01-17T10:50:43.074Z,69.32
2023-01-17T10:51:42.005Z,69.14
2023-01-17T10:52:42.305Z,68.77
2023-01-17T10:53:42.035Z,68.13
2023-01-17T10:54:41.983Z,69.53
2023-01-17T10:55:41.951Z,69.97
2023-01-17T10:56:41.997Z,68.84
2023-01-17T10:57:41.929Z,69.54
2023-01-17T10:58:42.031Z,69.60
2023-01-17T10:59:41.903Z,67.45
2023-01-17T11:00:41.939Z,68.01
2023-01-17T11:01:42.001Z,68.09
2023-01-17T11:02:41.959Z,68.90
2023-01-17T11:03:41.841Z,69.78
2023-01-17T11:04:41.870Z,68.67
2023-01-17T11:05:41.833Z,70.06
2023-01-17T11:06:57.211Z,71.87
2023-01-17T11:07:42.789Z,70.45
2023-01-17T11:08:41.879Z,70.30
2023-01-17T11:09:41.763Z,70.54
2023-01-17T11:10:41.784Z,69.36
2023-01-17T11:11:41.762Z,71.25
2023-01-17T11:12:41.792Z,69.87
2023-01-17T11:13:41.712Z,70.22
2023-01-17T11:14:41.704Z,70.18
2023-01-17T11:15:41.716Z,70.15
2023-01-17T11:16:41.730Z,70.04
2023-01-17T11:17:41.676Z,72.30
2023-01-17T11:19:50.964Z,68.13
2023-01-17T11:20:50.849Z,68.13
2023-01-17T11:21:50.879Z,68.72
2023-01-17T11:22:50.849Z,69.38
2023-01-17T11:23:50.900Z,68.61
2023-01-17T11:24:50.851Z,68.65
2023-01-17T11:25:50.808Z,67.89
2023-01-17T11:26:50.769Z,69.13
2023-01-17T11:27:50.819Z,68.87
2023-01-17T11:28:50.770Z,66.66
2023-01-17T11:29:50.864Z,67.37
2023-01-17T11:30:50.745Z,68.48
2023-01-17T11:32:11.736Z,68.88
2023-01-17T11:32:50.689Z,66.90
2023-01-17T11:33:50.758Z,67.29
2023-01-17T11:34:50.693Z,65.85
2023-01-17T11:35:52.279Z,65.62
2023-01-17T11:36:50.647Z,65.66
2023-01-17T11:37:50.687Z,64.77
2023-01-17T11:38:50.617Z,65.32
2023-01-17T11:39:50.698Z,64.97
2023-01-17T11:40:50.636Z,65.32
2023-01-17T11:41:50.610Z,64.70
2023-01-17T11:42:50.559Z,64.85
2023-01-17T11:43:50.778Z,65.41
2023-01-17T11:44:50.548Z,66.05
2023-01-17T11:45:50.609Z,64.11
2023-01-17T11:46:50.542Z,64.92
2023-01-17T11:47:50.551Z,65.79
2023-01-17T11:48:50.480Z,65.34
2023-01-17T11:49:50.587Z,65.75
2023-01-17T11:50:50.457Z,66.43
2023-01-17T11:51:50.519Z,66.18
2023-01-17T11:52:50.448Z,66.17
2023-01-17T11:53:50.512Z,64.86
2023-01-17T11:54:50.402Z,65.75
2023-01-17T11:55:50.424Z,65.36
2023-01-17T11:56:50.372Z,65.61
2023-01-17T11:57:50.423Z,64.95
2023-01-17T11:58:50.348Z,64.82
2023-01-17T11:59:50.437Z,64.41
2023-01-17T12:00:50.328Z,63.95
2023-01-17T12:01:50.346Z,63.48
2023-01-17T12:02:50.288Z,63.81
2023-01-17T12:03:50.423Z,63.73
2023-01-17T12:04:50.295Z,64.24
2023-01-17T12:05:50.295Z,64.85
2023-01-17T12:06:57.671Z,64.53
2023-01-17T12:07:51.228Z,64.77
2023-01-17T12:08:50.288Z,64.70
2023-01-17T12:09:50.467Z,63.68
2023-01-17T12:10:50.280Z,63.74
2023-01-17T12:11:50.175Z,64.83
2023-01-17T12:12:50.217Z,64.86
2023-01-17T12:13:50.142Z,64.64
2023-01-17T12:14:50.239Z,64.06
2023-01-17T12:15:50.129Z,65.01
2023-01-17T12:16:50.209Z,66.10
2023-01-17T12:17:50.107Z,64.60
2023-01-17T12:18:50.169Z,65.40
2023-01-17T12:19:50.047Z,64.99
2023-01-17T12:20:50.077Z,65.37
2023-01-17T12:21:50.042Z,66.22
2023-01-17T12:22:50.147Z,66.47
2023-01-17T12:23:50.015Z,65.75
2023-01-17T12:24:51.031Z,66.16
2023-01-17T12:25:50.162Z,66.16
2023-01-17T12:26:50.020Z,65.79
2023-01-17T12:27:49.946Z,66.51
2023-01-17T12:28:49.976Z,66.45
2023-01-17T12:29:49.934Z,67.11
2023-01-17T12:30:49.945Z,65.92
2023-01-17T12:31:49.906Z,66.42
2023-01-17T12:32:49.969Z,67.12
2023-01-17T12:33:49.875Z,66.86
2023-01-17T12:34:49.918Z,66.32
2023-01-17T12:35:49.846Z,66.37
2023-01-17T12:36:49.927Z,66.44
2023-01-17T12:38:03.727Z,67.15
2023-01-17T12:38:50.818Z,67.67
2023-01-17T12:39:49.808Z,69.05
2023-01-17T12:40:49.806Z,68.38
2023-01-17T12:41:49.902Z,68.36
2023-01-17T12:42:49.743Z,68.01
2023-01-17T12:43:49.936Z,68.44
2023-01-17T12:44:49.724Z,68.23
2023-01-17T12:45:49.766Z,68.01
2023-01-17T12:46:49.752Z,67.05
2023-01-17T12:47:49.811Z,67.58
2023-01-17T12:48:49.675Z,67.09
2023-01-17T12:49:49.843Z,67.61
2023-01-17T12:50:49.647Z,68.47
2023-01-17T12:52:10.795Z,67.97
2023-01-17T12:52:49.633Z,67.63
2023-01-17T12:53:49.830Z,67.54
2023-01-17T12:54:49.603Z,67.89
2023-01-17T12:55:51.744Z,67.20
2023-01-17T12:56:49.564Z,68.46
2023-01-17T12:57:49.741Z,68.50
2023-01-17T12:58:49.548Z,68.44
2023-01-17T12:59:49.621Z,68.73
2023-01-17T13:00:49.605Z,67.92